Time;durP1;ratioP1;P1;durP2;ratioP2;P2;SDS_P1;SDS_P2;PMS_P1;PMS_P2;Temp;Humidity;BMP_temperature;BMP_pressure;BME280_temperature;BME280_humidity;BME280_pressure;Samples;Min_cycle;Max_cycle;Signal;HPM_P1;HPM_P2
2020/12/15 00:01:08;;;;;;;9.30;5.40;;;;;;;7.20;87.27;100157.06;5105149;28;20035;-68
2020/12/15 00:03:34;;;;;;;10.02;5.50;;;;;;;7.30;86.75;100148.28;5104779;28;20043;-69
2020/12/15 00:05:59;;;;;;;14.45;6.88;;;;;;;7.34;86.40;100154.97;5105036;28;20027;-68
2020/12/15 00:08:25;;;;;;;10.27;5.95;;;;;;;7.30;85.85;100148.28;5105090;28;20031;-71
2020/12/15 00:10:50;;;;;;;9.13;5.50;;;;;;;7.15;86.91;100144.31;5103741;28;20122;-71
2020/12/15 00:13:15;;;;;;;10.07;6.03;;;;;;;7.26;86.78;100143.38;5104632;28;20040;-71
2020/12/15 00:15:41;;;;;;;8.82;5.40;;;;;;;7.20;87.06;100146.53;5103677;28;20027;-69
2020/12/15 00:18:06;;;;;;;9.20;5.75;;;;;;;7.09;87.16;100146.63;5104780;28;20134;-69
2020/12/15 00:20:32;;;;;;;9.60;5.65;;;;;;;7.18;86.33;100151.09;5104720;28;20036;-68
2020/12/15 00:22:59;;;;;;;10.80;5.75;;;;;;;7.07;87.05;100148.53;5103383;28;20099;-69
2020/12/15 00:25:24;;;;;;;9.00;5.55;;;;;;;7.02;86.95;100141.03;5104476;28;20053;-68
2020/12/15 00:27:50;;;;;;;9.18;5.80;;;;;;;7.15;87.52;100154.00;5104420;28;20095;-71
2020/12/15 00:30:15;;;;;;;7.85;4.97;;;;;;;7.08;87.28;100161.59;5104562;28;20314;-71
2020/12/15 00:32:45;;;;;;;9.52;5.65;;;;;;;7.14;86.57;100158.44;5104449;28;20028;-71
2020/12/15 00:35:11;;;;;;;7.88;5.35;;;;;;;7.16;86.58;100148.59;5104631;28;20078;-69
2020/12/15 00:37:37;;;;;;;9.68;5.47;;;;;;;7.17;87.12;100154.69;5104386;28;20032;-69
2020/12/15 00:40:03;;;;;;;9.98;6.05;;;;;;;7.13;86.52;100153.28;5104185;28;20036;-71
2020/12/15 00:42:28;;;;;;;8.30;5.07;;;;;;;7.27;85.90;100159.06;5103087;28;20251;-71
2020/12/15 00:44:54;;;;;;;9.60;5.90;;;;;;;7.16;85.93;100155.66;5104141;28;20040;-71
2020/12/15 00:47:19;;;;;;;7.63;4.90;;;;;;;7.01;86.47;100147.28;5104118;28;20087;-71
2020/12/15 00:49:45;;;;;;;7.68;4.95;;;;;;;7.07;86.24;100152.00;5104021;28;20055;-69
2020/12/15 00:52:10;;;;;;;7.68;5.03;;;;;;;7.23;85.13;100165.56;5104034;28;20028;-69
2020/12/15 00:54:36;;;;;;;8.00;4.60;;;;;;;7.29;84.21;100162.44;5104259;28;20058;-69
2020/12/15 00:57:01;;;;;;;9.45;4.90;;;;;;;7.27;84.81;100166.97;5103924;28;20263;-69
2020/12/15 00:59:26;;;;;;;7.78;5.00;;;;;;;7.22;85.30;100158.63;5104307;28;20349;-69
2020/12/15 01:01:57;;;;;;;7.45;5.28;;;;;;;7.24;85.59;100161.13;5103969;28;20051;-68
2020/12/15 01:04:23;;;;;;;10.02;5.90;;;;;;;7.18;85.86;100166.91;5104220;28;20028;-69
2020/12/15 01:06:49;;;;;;;10.57;5.05;;;;;;;7.22;85.66;100158.63;5103836;28;20074;-69
2020/12/15 01:09:15;;;;;;;7.97;5.10;;;;;;;7.09;86.29;100160.63;5104141;28;20055;-68
2020/12/15 01:11:40;;;;;;;9.25;4.63;;;;;;;7.13;86.31;100153.28;5103694;28;20268;-68
2020/12/15 01:14:05;;;;;;;8.88;5.05;;;;;;;7.14;85.77;100163.69;5103503;28;20074;-69
2020/12/15 01:16:31;;;;;;;9.85;5.38;;;;;;;7.29;85.54;100153.69;5103609;28;20032;-68
2020/12/15 01:18:57;;;;;;;10.15;6.00;;;;;;;7.22;85.96;100158.63;5103847;28;20053;-71
2020/12/15 01:21:29;;;;;;;9.93;5.40;;;;;;;7.22;85.73;100158.63;5103548;28;20103;-71
2020/12/15 01:23:55;;;;;;;10.25;6.40;;;;;;;7.10;86.24;100159.66;5103677;28;20032;-71
2020/12/15 01:26:21;;;;;;;14.60;6.95;;;;;;;7.29;85.95;100165.06;5103157;28;20038;-69
2020/12/15 01:28:47;;;;;;;15.98;5.93;;;;;;;7.31;84.93;100163.13;5103614;28;20036;-72
2020/12/15 01:31:12;;;;;;;10.10;5.90;;;;;;;7.24;84.53;100148.78;5103449;28;20032;-71
2020/12/15 01:33:38;;;;;;;10.30;5.40;;;;;;;7.41;84.58;100157.91;5103178;28;20058;-71
2020/12/15 01:36:03;;;;;;;9.40;5.20;;;;;;;7.32;84.66;100156.06;5103659;28;20095;-71
2020/12/15 01:38:29;;;;;;;8.80;5.35;;;;;;;7.46;84.39;100160.97;5103485;28;20304;-68
2020/12/15 01:40:54;;;;;;;9.95;5.40;;;;;;;7.25;84.79;100152.25;5103281;28;20028;-71
2020/12/15 01:43:20;;;;;;;9.43;5.50;;;;;;;7.17;85.33;100162.59;5103501;28;20088;-71
2020/12/15 01:45:45;;;;;;;7.65;5.25;;;;;;;7.23;86.07;100157.66;5103342;28;20040;-71
2020/12/15 01:48:11;;;;;;;11.05;5.75;;;;;;;7.37;85.16;100156.50;5103266;28;20035;-71
2020/12/15 01:50:38;;;;;;;7.53;4.60;;;;;;;7.31;85.09;100154.41;5103197;28;20036;-69
2020/12/15 01:53:12;;;;;;;10.13;4.88;;;;;;;7.23;85.73;100162.09;5294218;22;20071;-72
2020/12/15 01:55:38;;;;;;;12.40;6.10;;;;;;;7.20;85.78;100160.53;5123429;28;20322;-69
2020/12/15 01:58:06;;;;;;;9.80;5.35;;;;;;;7.17;85.97;100152.06;5123742;28;20309;-69
2020/12/15 02:00:32;;;;;;;12.13;6.65;;;;;;;7.23;86.12;100156.81;5123457;28;20180;-70
2020/12/15 02:02:58;;;;;;;11.30;6.18;;;;;;;7.21;86.10;100154.31;5123812;28;20250;-72
2020/12/15 02:05:23;;;;;;;9.30;5.85;;;;;;;7.23;85.03;100141.84;5105150;28;20015;-70
2020/12/15 02:07:49;;;;;;;8.30;5.10;;;;;;;7.21;85.66;100151.69;5123689;28;20114;-72
2020/12/15 02:10:15;;;;;;;8.20;5.15;;;;;;;7.18;86.32;100154.56;5123278;28;20332;-72
2020/12/15 02:12:41;;;;;;;10.32;5.40;;;;;;;7.14;86.54;100150.53;5123613;28;20077;-69
2020/12/15 02:15:07;;;;;;;9.48;5.85;;;;;;;7.23;86.32;100146.28;5123146;28;20035;-70
2020/12/15 02:17:34;;;;;;;9.48;5.57;;;;;;;7.23;86.71;100149.75;5123115;28;20046;-72
2020/12/15 02:20:00;;;;;;;10.50;5.95;;;;;;;7.27;86.30;100150.31;5123261;28;20032;-70
2020/12/15 02:22:27;;;;;;;10.45;5.90;;;;;;;7.34;85.76;100162.03;5123359;28;20300;-69
2020/12/15 02:24:52;;;;;;;9.50;5.55;;;;;;;7.47;84.33;100156.53;5123116;28;20336;-69
2020/12/15 02:27:17;;;;;;;9.80;5.63;;;;;;;7.44;84.99;100162.06;5123289;28;20028;-70
2020/12/15 02:29:43;;;;;;;12.13;5.43;;;;;;;7.31;85.22;100152.59;5123226;28;20023;-72
2020/12/15 02:32:08;;;;;;;13.43;6.97;;;;;;;7.30;85.97;100150.09;5123595;28;20027;-70
2020/12/15 02:34:34;;;;;;;10.20;5.35;;;;;;;7.33;85.25;100155.94;5123101;28;20356;-69
2020/12/15 02:37:06;;;;;;;16.88;8.05;;;;;;;7.30;85.32;100164.09;5123190;28;20044;-69
2020/12/15 02:39:32;;;;;;;11.25;5.93;;;;;;;7.33;85.53;100163.84;5125170;28;20034;-70
2020/12/15 02:41:57;;;;;;;9.88;5.60;;;;;;;7.29;84.92;100137.88;5127087;28;20231;-70
2020/12/15 02:44:22;;;;;;;11.15;6.10;;;;;;;7.26;86.03;100161.81;5127047;28;20044;-72
2020/12/15 02:46:48;;;;;;;10.95;6.20;;;;;;;7.41;85.89;100165.81;5127062;28;20039;-72
2020/12/15 02:49:13;;;;;;;12.30;6.68;;;;;;;7.32;86.08;100166.59;5127037;28;20257;-72
2020/12/15 02:51:39;;;;;;;13.35;6.55;;;;;;;7.52;84.82;100164.88;5126497;28;20055;-69
2020/12/15 02:54:04;;;;;;;10.93;6.30;;;;;;;7.36;85.89;100168.00;5126625;28;20038;-73
2020/12/15 02:56:30;;;;;;;11.65;6.75;;;;;;;7.38;85.77;100175.78;5108466;28;20033;-69
2020/12/15 02:58:55;;;;;;;9.50;6.35;;;;;;;7.30;86.53;100169.38;5126751;28;20129;-69
2020/12/15 03:01:21;;;;;;;12.23;7.07;;;;;;;7.31;86.22;100165.75;5108390;28;20084;-72
2020/12/15 03:03:46;;;;;;;9.30;6.20;;;;;;;7.21;86.55;100164.00;5126631;28;20332;-72
2020/12/15 03:06:13;;;;;;;9.00;5.85;;;;;;;7.24;85.86;100166.38;5126615;28;20038;-72
2020/12/15 03:08:38;;;;;;;10.68;6.13;;;;;;;7.24;86.77;100161.13;5126955;28;20285;-70
2020/12/15 03:11:05;;;;;;;14.90;8.70;;;;;;;7.40;85.35;100168.56;5126469;28;20027;-72
2020/12/15 03:13:31;;;;;;;12.32;5.75;;;;;;;7.40;85.30;100173.84;5126799;28;20065;-72
2020/12/15 03:15:56;;;;;;;9.35;5.60;;;;;;;7.36;85.58;100176.75;5126343;28;20248;-69
2020/12/15 03:18:22;;;;;;;8.35;5.13;;;;;;;7.37;85.59;100185.47;5126079;28;20332;-72
2020/12/15 03:20:49;;;;;;;9.32;5.55;;;;;;;7.41;85.63;100180.78;5126344;28;20197;-72
2020/12/15 03:23:16;;;;;;;9.48;5.80;;;;;;;7.34;85.79;100191.00;5126365;28;20031;-69
2020/12/15 03:25:42;;;;;;;11.48;6.35;;;;;;;7.41;85.14;100188.69;5126506;28;20024;-72
2020/12/15 03:28:07;;;;;;;8.45;5.25;;;;;;;7.47;85.85;100196.91;5126447;28;20046;-72
2020/12/15 03:30:34;;;;;;;10.68;5.18;;;;;;;7.61;84.03;100193.91;5126189;28;20031;-72
2020/12/15 03:33:00;;;;;;;8.68;5.53;;;;;;;7.36;85.38;100192.56;5107934;28;20327;-70
2020/12/15 03:35:27;;;;;;;9.05;5.32;;;;;;;7.50;84.59;100190.53;5125965;28;20321;-72
2020/12/15 03:37:54;;;;;;;7.68;5.03;;;;;;;7.25;86.81;100191.75;5126344;28;20090;-69
2020/12/15 03:40:20;;;;;;;10.73;5.28;;;;;;;7.27;85.95;100192.47;5125836;28;20099;-69
2020/12/15 03:42:45;;;;;;;8.68;5.47;;;;;;;7.37;86.27;100201.28;5126146;28;20023;-72
2020/12/15 03:45:11;;;;;;;10.73;6.25;;;;;;;7.39;86.01;100209.91;5125840;28;20028;-69
2020/12/15 03:47:36;;;;;;;8.80;5.45;;;;;;;7.47;84.92;100211.88;5125995;28;20035;-72
2020/12/15 03:50:03;;;;;;;9.15;5.43;;;;;;;7.57;85.34;100210.13;5125543;28;20332;-69
2020/12/15 03:52:28;;;;;;;10.80;5.95;;;;;;;7.53;84.69;100214.81;5107115;28;20042;-72
2020/12/15 03:54:54;;;;;;;11.93;6.57;;;;;;;7.42;84.90;100214.06;5125461;28;20032;-70
2020/12/15 03:57:19;;;;;;;10.38;6.70;;;;;;;7.54;84.42;100220.94;5125762;28;20027;-72
2020/12/15 03:59:45;;;;;;;9.07;6.00;;;;;;;7.47;85.88;100227.69;5125593;28;20024;-69
2020/12/15 04:02:10;;;;;;;12.07;5.75;;;;;;;7.51;85.75;100232.56;5125797;28;20283;-70
2020/12/15 04:04:35;;;;;;;10.13;6.10;;;;;;;7.50;84.41;100238.81;5125505;28;20019;-72
2020/12/15 04:07:01;;;;;;;9.07;6.07;;;;;;;7.62;84.61;100232.47;5125386;28;20040;-72
2020/12/15 04:09:26;;;;;;;10.63;5.78;;;;;;;7.56;85.14;100234.81;5125280;28;20082;-72
2020/12/15 04:11:52;;;;;;;9.25;5.32;;;;;;;7.56;85.05;100242.72;5125404;28;20032;-72
2020/12/15 04:14:17;;;;;;;11.30;6.25;;;;;;;7.58;84.99;100244.25;5125532;28;20026;-72
2020/12/15 04:16:42;;;;;;;11.35;6.20;;;;;;;7.69;85.32;100252.09;5106929;28;20141;-69
2020/12/15 04:19:08;;;;;;;8.60;5.53;;;;;;;7.69;84.38;100249.44;5125122;28;20300;-69
2020/12/15 04:21:33;;;;;;;21.55;9.20;;;;;;;7.76;83.98;100257.66;5125149;28;20043;-70
2020/12/15 04:23:59;;;;;;;13.63;6.82;;;;;;;7.64;83.72;100259.53;5125444;28;20047;-70
2020/12/15 04:26:24;;;;;;;10.00;6.07;;;;;;;7.58;85.08;100259.22;5106801;28;20016;-72
2020/12/15 04:28:50;;;;;;;9.73;5.75;;;;;;;7.77;83.61;100267.25;5124940;28;20082;-70
2020/12/15 04:31:15;;;;;;;12.55;6.85;;;;;;;7.55;84.11;100270.88;5124815;28;20079;-72
2020/12/15 04:33:40;;;;;;;11.98;6.40;;;;;;;7.67;84.33;100274.25;5125119;28;20265;-72
2020/12/15 04:36:06;;;;;;;10.48;6.50;;;;;;;7.55;84.58;100277.94;5124801;28;20248;-69
2020/12/15 04:38:31;;;;;;;13.90;6.50;;;;;;;7.53;85.68;100285.13;5125121;28;20285;-72
2020/12/15 04:40:57;;;;;;;10.45;6.30;;;;;;;7.69;85.41;100280.25;5106630;28;20212;-69
2020/12/15 04:43:23;;;;;;;13.02;6.47;;;;;;;7.72;84.34;100279.97;5125041;28;20085;-72
2020/12/15 04:45:49;;;;;;;10.98;6.22;;;;;;;7.65;85.16;100278.81;5124671;28;20305;-70
2020/12/15 04:48:23;;;;;;;14.18;8.30;;;;;;;7.59;84.87;100279.34;5124780;28;20054;-69
2020/12/15 04:50:50;;;;;;;12.60;8.20;;;;;;;7.58;85.58;100285.59;5124627;28;20024;-72
2020/12/15 04:53:23;;;;;;;13.85;8.65;;;;;;;7.52;85.60;100265.84;5123916;28;20043;-72
2020/12/15 04:55:50;;;;;;;25.70;12.55;;;;;;;7.57;85.37;100287.38;5124465;28;20020;-69
2020/12/15 04:58:21;;;;;;;27.30;13.40;;;;;;;7.67;84.79;100293.53;5124584;28;20027;-72
2020/12/15 05:00:46;;;;;;;24.40;12.52;;;;;;;7.63;85.29;100292.13;5124238;28;20032;-72
2020/12/15 05:03:20;;;;;;;21.73;11.57;;;;;;;7.63;85.24;100293.94;5124064;28;20046;-69
2020/12/15 05:05:50;;;;;;;16.20;9.70;;;;;;;7.58;85.26;100293.50;5124392;28;20030;-69
2020/12/15 05:08:16;;;;;;;14.65;8.40;;;;;;;7.56;85.54;100295.41;5124042;28;20050;-72
2020/12/15 05:10:41;;;;;;;15.05;8.10;;;;;;;7.51;85.12;100301.06;5124263;28;20027;-72
2020/12/15 05:13:07;;;;;;;21.90;11.30;;;;;;;7.42;85.09;100301.84;5105977;28;20089;-69
2020/12/15 05:15:33;;;;;;;19.33;10.40;;;;;;;7.49;85.33;100305.66;5124067;28;20038;-72
2020/12/15 05:18:03;;;;;;;24.52;12.82;;;;;;;7.45;85.45;100306.03;5124250;28;20062;-69
2020/12/15 05:20:31;;;;;;;30.13;13.93;;;;;;;7.43;85.10;100303.53;5123976;28;20064;-70
2020/12/15 05:22:57;;;;;;;27.70;13.35;;;;;;;7.43;84.54;100302.69;5123667;28;20035;-72
2020/12/15 05:25:24;;;;;;;18.48;10.73;;;;;;;7.29;85.11;100299.41;5105626;28;20212;-70
2020/12/15 05:27:49;;;;;;;19.00;10.63;;;;;;;7.31;85.34;100305.38;5123698;28;20023;-70
2020/12/15 05:30:15;;;;;;;22.95;13.95;;;;;;;7.26;86.21;100302.25;5123828;28;20061;-72
2020/12/15 05:33:08;;;;;;;46.72;23.77;;;;;;;7.38;85.54;100316.25;5124073;28;20034;-72
2020/12/15 05:35:35;;;;;;;83.15;36.95;;;;;;;7.39;85.20;100317.09;5119375;28;20107;-69
2020/12/15 05:38:03;;;;;;;44.47;22.08;;;;;;;7.59;84.14;100308.34;5123653;28;20032;-72
2020/12/15 05:40:29;;;;;;;43.17;22.77;;;;;;;7.48;85.08;100317.16;5123654;28;20027;-70
2020/12/15 05:42:57;;;;;;;26.52;15.02;;;;;;;7.68;84.18;100315.47;5123954;28;20038;-72
2020/12/15 05:45:24;;;;;;;19.52;10.10;;;;;;;7.64;84.28;100314.91;5123631;28;20331;-72
2020/12/15 05:47:58;;;;;;;17.25;9.93;;;;;;;7.83;83.09;100327.34;5123766;28;20038;-70
2020/12/15 05:50:25;;;;;;;18.70;10.20;;;;;;;7.84;82.99;100320.28;5123812;28;20349;-69
2020/12/15 05:53:11;;;;;;;19.30;10.60;;;;;;;7.59;84.22;100332.91;5123216;28;20075;-69
2020/12/15 05:55:38;;;;;;;28.83;15.80;;;;;;;7.58;84.76;100343.56;5123503;28;20038;-72
2020/12/15 05:58:05;;;;;;;34.45;16.13;;;;;;;7.59;84.96;100346.06;5123575;28;20051;-69
2020/12/15 06:00:32;;;;;;;55.95;23.50;;;;;;;7.66;84.43;100338.50;5123532;28;20011;-69
2020/12/15 06:03:03;;;;;;;67.05;28.90;;;;;;;7.64;85.01;100349.16;5123721;28;20027;-72
2020/12/15 06:05:31;;;;;;;67.13;30.10;;;;;;;7.79;84.23;100347.03;5123424;28;20239;-72
2020/12/15 06:07:58;;;;;;;64.18;32.35;;;;;;;7.74;83.58;100365.03;5123275;28;20032;-69
2020/12/15 06:10:25;;;;;;;37.67;20.17;;;;;;;7.68;84.01;100353.22;5123265;28;20031;-70
2020/12/15 06:12:52;;;;;;;42.75;19.10;;;;;;;7.90;83.65;100359.31;5123592;28;20038;-69
2020/12/15 06:15:18;;;;;;;35.78;17.15;;;;;;;7.86;82.91;100355.25;5126821;28;20030;-70
2020/12/15 06:17:56;;;;;;;20.83;11.52;;;;;;;7.98;82.99;100373.50;5127804;28;20024;-72
2020/12/15 06:20:22;;;;;;;32.97;15.32;;;;;;;7.93;82.67;100375.69;5127643;28;20308;-70
2020/12/15 06:22:52;;;;;;;18.55;13.57;;;;;;;7.78;83.70;100379.63;5127717;28;20049;-72
2020/12/15 06:25:32;;;;;;;17.90;11.82;;;;;;;7.95;82.64;100379.06;5127202;28;20062;-69
2020/12/15 06:28:11;;;;;;;13.80;9.38;;;;;;;7.86;83.48;100390.38;5127579;28;20308;-70
2020/12/15 06:30:46;;;;;;;13.15;8.05;;;;;;;7.75;83.34;100387.78;5127385;28;20092;-70
2020/12/15 06:33:14;;;;;;;11.30;7.78;;;;;;;7.81;83.00;100400.47;5127582;28;20053;-72
2020/12/15 06:35:43;;;;;;;15.10;8.93;;;;;;;7.80;83.54;100395.31;5127099;28;20031;-72
2020/12/15 06:38:20;;;;;;;30.33;13.00;;;;;;;7.58;84.28;100394.47;5126948;28;20039;-69
2020/12/15 06:40:47;;;;;;;30.23;15.50;;;;;;;7.54;85.40;100402.75;5127070;28;20114;-72
2020/12/15 06:43:27;;;;;;;43.35;21.20;;;;;;;7.72;85.02;100410.94;5127204;28;20036;-69
2020/12/15 06:46:11;;;;;;;28.65;15.40;;;;;;;7.92;83.20;100405.69;5127074;28;20031;-69
2020/12/15 06:48:42;;;;;;;25.02;12.40;;;;;;;7.80;83.98;100404.06;5127384;28;20046;-70
2020/12/15 06:51:08;;;;;;;34.30;18.52;;;;;;;7.81;83.96;100400.47;5108695;28;20336;-72
2020/12/15 06:53:34;;;;;;;34.08;17.23;;;;;;;7.81;84.05;100403.09;5108085;28;20046;-72
2020/12/15 06:56:01;;;;;;;34.35;17.83;;;;;;;7.86;84.36;100403.56;5126671;28;20055;-69
2020/12/15 06:58:27;;;;;;;40.58;20.92;;;;;;;7.91;83.96;100409.28;5126945;28;20297;-72
2020/12/15 07:00:52;;;;;;;42.97;20.52;;;;;;;7.96;83.72;100406.25;5126721;28;20035;-72
2020/12/15 07:03:34;;;;;;;37.38;21.45;;;;;;;8.01;83.95;100422.53;5126900;28;20038;-72
2020/12/15 07:06:15;;;;;;;33.15;17.30;;;;;;;8.18;83.34;100421.94;5126707;28;20096;-72
2020/12/15 07:08:55;;;;;;;30.15;17.23;;;;;;;8.19;84.16;100417.50;5126462;28;20072;-70
2020/12/15 07:11:27;;;;;;;26.63;14.65;;;;;;;8.22;83.69;100411.97;5126315;28;20027;-72
2020/12/15 07:13:57;;;;;;;51.83;24.45;;;;;;;8.34;83.13;100424.16;5126364;28;20031;-72
2020/12/15 07:16:24;;;;;;;23.70;13.55;;;;;;;8.41;82.88;100427.13;5126198;28;20039;-72
2020/12/15 07:18:50;;;;;;;19.95;11.50;;;;;;;8.51;81.98;100422.72;5126232;28;20043;-69
2020/12/15 07:21:15;;;;;;;18.30;11.02;;;;;;;8.41;81.21;100430.59;5126153;28;20024;-72
2020/12/15 07:23:41;;;;;;;19.00;11.13;;;;;;;8.50;81.44;100437.72;5126095;28;20110;-72
2020/12/15 07:26:12;;;;;;;19.13;11.23;;;;;;;8.46;80.91;100435.47;5125639;28;20027;-72
2020/12/15 08:41:25;;;;;;;17.58;10.75;;;;;;;9.39;77.61;100453.72;5080307;28;20584;-69
2020/12/15 08:43:51;;;;;;;16.80;9.95;;;;;;;9.43;77.20;100436.63;5079927;28;20229;-76
2020/12/15 08:46:18;;;;;;;19.88;13.15;;;;;;;9.50;77.24;100430.63;5079554;28;20209;-76
2020/12/15 08:48:44;;;;;;;15.82;9.43;;;;;;;9.38;77.38;100436.19;5079769;28;20028;-76
2020/12/15 08:51:14;;;;;;;17.60;9.45;;;;;;;9.46;77.25;100445.09;5079554;28;20045;-76
2020/12/15 08:53:41;;;;;;;12.82;7.97;;;;;;;9.58;75.82;100435.22;5079651;28;20329;-76
2020/12/15 08:56:16;;;;;;;18.15;9.82;;;;;;;9.65;76.27;100424.94;5079385;28;20033;-76
2020/12/15 08:58:42;;;;;;;15.38;9.35;;;;;;;9.60;77.11;100433.28;5078325;28;20147;-76
2020/12/15 09:12:16;;;;;;;24.42;14.07;;;;;;;10.51;76.16;100416.88;6169896;22;814953;-76
2020/12/15 09:14:41;;;;;;;19.63;12.82;;;;;;;10.66;74.40;100417.25;6203004;23;20001;-76
2020/12/15 09:17:07;;;;;;;19.45;10.88;;;;;;;10.63;74.91;100419.34;6202926;23;20001;-76
2020/12/15 09:19:40;;;;;;;19.02;13.63;;;;;;;10.61;74.47;100408.06;6202822;23;20298;-76
2020/12/15 09:22:06;;;;;;;13.52;7.65;;;;;;;10.23;74.36;100399.25;6176413;23;20055;-76
2020/12/15 09:24:34;;;;;;;11.10;7.38;;;;;;;10.36;75.06;100407.72;6203153;23;20001;-76
2020/12/15 09:26:59;;;;;;;16.73;7.80;;;;;;;10.40;74.11;100397.66;6202796;23;20005;-76
2020/12/15 09:29:27;;;;;;;16.92;12.70;;;;;;;10.48;74.04;100403.94;6202409;23;20175;-76
2020/12/15 09:31:56;;;;;;;17.77;7.78;;;;;;;10.27;75.07;100389.22;6202853;23;20005;-76
2020/12/15 09:34:22;;;;;;;15.70;8.05;;;;;;;10.38;74.82;100404.91;6202404;23;20001;-76
2020/12/15 09:36:57;;;;;;;12.57;7.85;;;;;;;10.43;74.89;100402.72;6202527;23;20015;-76
2020/12/15 09:39:27;;;;;;;18.23;11.20;;;;;;;10.33;75.34;100405.34;6202523;23;20302;-76
2020/12/15 09:41:55;;;;;;;22.85;15.55;;;;;;;10.49;75.46;100408.25;6202756;23;20012;-76
2020/12/15 09:44:21;;;;;;;27.65;19.75;;;;;;;10.70;73.94;100413.31;6202448;23;20282;-76
2020/12/15 09:46:46;;;;;;;17.10;10.20;;;;;;;10.68;75.00;100407.34;6176412;23;20121;-76
2020/12/15 09:49:12;;;;;;;23.98;13.60;;;;;;;10.67;74.52;100407.47;6176415;23;20017;-76
2020/12/15 09:51:40;;;;;;;34.17;22.80;;;;;;;10.79;74.57;100409.78;6203168;23;20270;-76
2020/12/15 09:54:06;;;;;;;30.50;17.48;;;;;;;10.85;73.86;100405.72;6202995;23;20194;-76
2020/12/15 09:56:31;;;;;;;18.80;8.90;;;;;;;10.75;72.53;100404.94;6203072;23;20056;-75
2020/12/15 09:58:57;;;;;;;18.15;8.82;;;;;;;10.72;72.54;100395.47;6151400;23;20299;-76
2020/12/15 10:01:22;;;;;;;21.92;12.85;;;;;;;10.67;73.87;100397.72;6202893;23;20008;-76
2020/12/15 10:03:47;;;;;;;31.20;12.88;;;;;;;10.74;72.08;100405.91;6202643;23;20005;-75
2020/12/15 10:06:14;;;;;;;20.52;14.70;;;;;;;10.78;72.20;100415.25;6202693;23;20009;-76
2020/12/15 10:08:40;;;;;;;15.68;10.55;;;;;;;10.65;73.27;100401.50;6202585;23;20294;-75
2020/12/15 10:11:05;;;;;;;13.10;7.18;;;;;;;10.70;72.90;100413.31;6150290;23;20013;-75
2020/12/15 10:13:31;;;;;;;15.50;8.82;;;;;;;10.81;70.82;100404.34;6195581;23;20176;-75
2020/12/15 10:15:57;;;;;;;11.88;7.43;;;;;;;10.68;73.23;100396.75;6169633;23;20013;-76
2020/12/15 10:18:23;;;;;;;19.65;11.48;;;;;;;10.79;71.18;100403.66;6195682;23;20028;-76
2020/12/15 10:20:48;;;;;;;20.75;12.98;;;;;;;10.66;73.33;100385.47;6195777;23;20013;-76
2020/12/15 10:23:14;;;;;;;17.25;10.07;;;;;;;10.75;72.60;100389.88;6195732;23;20287;-75
2020/12/15 10:25:40;;;;;;;13.88;8.38;;;;;;;10.86;72.67;100389.69;6195472;23;20009;-76
2020/12/15 10:28:06;;;;;;;16.30;11.02;;;;;;;11.05;70.90;100386.06;6169270;23;20005;-76
2020/12/15 10:30:34;;;;;;;11.07;7.20;;;;;;;10.99;72.08;100378.72;6195284;23;20025;-76
2020/12/15 10:32:59;;;;;;;19.80;14.23;;;;;;;11.23;69.93;100377.31;6195597;23;20008;-76
2020/12/15 10:35:24;;;;;;;18.23;12.60;;;;;;;11.04;70.70;100376.47;6169397;23;20013;-76
2020/12/15 10:37:50;;;;;;;13.57;8.93;;;;;;;11.09;70.29;100371.53;6195650;23;20025;-75
2020/12/15 10:40:15;;;;;;;17.75;10.82;;;;;;;11.08;70.66;100379.63;6195400;23;20112;-75
2020/12/15 10:42:41;;;;;;;16.95;11.68;;;;;;;11.01;70.68;100383.88;6195475;23;20048;-76
2020/12/15 10:45:07;;;;;;;15.88;8.10;;;;;;;10.97;70.96;100369.25;6195519;23;20333;-75
2020/12/15 10:47:32;;;;;;;14.90;7.38;;;;;;;10.97;72.68;100379.84;6195504;23;20001;-76
2020/12/15 10:49:58;;;;;;;12.27;6.85;;;;;;;10.98;71.72;100379.69;6195360;23;20226;-75
2020/12/15 10:52:25;;;;;;;12.38;6.68;;;;;;;11.10;70.80;100375.03;6169059;23;20031;-75
2020/12/15 10:54:52;;;;;;;20.73;10.82;;;;;;;10.92;72.20;100382.94;6195317;23;20009;-76
2020/12/15 10:57:18;;;;;;;9.90;6.53;;;;;;;11.05;70.32;100359.56;6168568;23;20005;-75
2020/12/15 10:59:44;;;;;;;19.70;15.15;;;;;;;11.07;71.12;100383.28;6194895;23;20059;-75
2020/12/15 11:02:09;;;;;;;17.52;11.10;;;;;;;11.21;70.66;100380.09;6195393;23;20021;-75
2020/12/15 11:04:36;;;;;;;12.60;7.00;;;;;;;11.13;70.00;100369.41;6169024;23;20009;-75
2020/12/15 11:07:01;;;;;;;24.63;11.70;;;;;;;11.06;70.63;100369.19;6195246;23;20035;-75
2020/12/15 11:09:27;;;;;;;13.73;6.10;;;;;;;11.09;68.38;100355.63;6195029;23;20056;-75
2020/12/15 11:11:52;;;;;;;15.90;10.30;;;;;;;11.10;70.00;100367.06;6168765;23;20056;-75
2020/12/15 11:14:21;;;;;;;10.15;6.40;;;;;;;11.03;72.14;100366.00;6169096;23;20294;-75
2020/12/15 11:16:46;;;;;;;21.40;5.78;;;;;;;11.12;72.21;100368.59;6168987;23;20198;-75
2020/12/15 11:19:12;;;;;;;14.40;8.07;;;;;;;11.18;70.64;100361.84;6168842;23;20001;-75
2020/12/15 11:21:37;;;;;;;11.80;7.28;;;;;;;11.28;71.94;100359.13;6195734;23;20069;-75
2020/12/15 11:24:04;;;;;;;10.38;6.25;;;;;;;11.20;69.58;100351.94;6194600;23;20298;-75
2020/12/15 11:26:29;;;;;;;11.15;5.85;;;;;;;11.26;71.05;100361.94;6195461;23;20023;-75
2020/12/15 11:28:56;;;;;;;12.98;7.20;;;;;;;11.06;71.03;100345.34;6194797;23;20005;-75
2020/12/15 11:31:21;;;;;;;20.50;8.60;;;;;;;11.27;69.97;100352.16;6168613;23;20074;-75
2020/12/15 11:33:47;;;;;;;16.25;6.90;;;;;;;11.27;70.07;100353.00;6195086;23;20210;-75
2020/12/15 11:36:14;;;;;;;11.50;7.20;;;;;;;11.10;71.66;100349.34;6195155;23;20275;-75
2020/12/15 11:38:43;;;;;;;12.80;6.07;;;;;;;11.05;72.58;100351.63;6195013;23;20015;-75
2020/12/15 11:41:08;;;;;;;10.65;5.55;;;;;;;11.12;72.77;100342.09;6195194;23;20055;-75
2020/12/15 11:43:34;;;;;;;13.38;7.05;;;;;;;11.17;72.58;100358.38;6168608;23;20009;-75
2020/12/15 11:45:59;;;;;;;10.25;5.93;;;;;;;11.14;72.69;100356.03;6195264;23;20179;-75
2020/12/15 11:48:25;;;;;;;12.15;7.50;;;;;;;11.08;72.14;100347.84;6194655;23;20328;-75
2020/12/15 11:50:51;;;;;;;13.98;6.70;;;;;;;11.21;71.95;100350.94;6194834;23;20033;-75
2020/12/15 11:53:16;;;;;;;11.18;7.55;;;;;;;11.37;71.95;100347.63;6194896;23;20009;-75
2020/12/15 11:55:41;;;;;;;21.50;15.57;;;;;;;11.29;71.51;100336.94;6195105;23;20360;-75
2020/12/15 11:58:07;;;;;;;11.35;7.82;;;;;;;11.49;69.34;100343.78;6194861;23;20028;-75
2020/12/15 12:00:32;;;;;;;8.52;4.97;;;;;;;11.48;69.08;100350.06;6194470;23;20044;-75
2020/12/15 12:02:58;;;;;;;8.02;4.70;;;;;;;11.41;69.54;100347.16;6194831;23;20016;-76
2020/12/15 12:05:23;;;;;;;10.55;5.40;;;;;;;11.45;68.94;100350.38;6194766;23;20005;-75
2020/12/15 12:07:49;;;;;;;9.35;6.00;;;;;;;11.55;68.87;100347.63;6194789;23;20247;-75
2020/12/15 12:10:14;;;;;;;14.38;8.32;;;;;;;11.47;71.23;100351.03;6194253;23;20036;-76
2020/12/15 12:12:40;;;;;;;8.77;4.65;;;;;;;11.38;68.55;100336.84;6194635;23;20001;-75
2020/12/15 12:15:06;;;;;;;6.75;4.38;;;;;;;11.36;69.74;100344.13;6194719;23;20190;-75
2020/12/15 12:17:32;;;;;;;7.80;4.53;;;;;;;11.36;69.81;100344.13;6194642;23;20008;-76
2020/12/15 12:19:57;;;;;;;10.80;4.72;;;;;;;11.42;70.43;100348.81;6194436;23;20017;-75
2020/12/15 12:22:23;;;;;;;9.02;5.10;;;;;;;11.51;69.98;100344.44;6194579;23;20001;-75
2020/12/15 12:24:48;;;;;;;12.02;5.53;;;;;;;11.42;70.62;100342.69;6194430;23;20324;-76
2020/12/15 12:27:13;;;;;;;11.40;5.03;;;;;;;11.41;70.00;100338.38;6194310;23;20057;-76
2020/12/15 12:29:39;;;;;;;9.35;4.40;;;;;;;11.30;69.94;100336.78;6193934;23;20012;-75
2020/12/15 12:32:05;;;;;;;6.50;3.60;;;;;;;11.26;70.27;100340.72;6194570;23;20040;-75
2020/12/15 12:34:30;;;;;;;7.60;3.53;;;;;;;11.33;69.98;100338.28;6194093;23;20024;-75
2020/12/15 12:36:56;;;;;;;14.40;11.73;;;;;;;11.37;69.09;100345.78;6194458;23;20048;-75
2020/12/15 12:39:21;;;;;;;8.68;4.53;;;;;;;11.30;67.71;100336.78;6194373;23;20205;-76
2020/12/15 12:41:52;;;;;;;12.70;8.20;;;;;;;11.35;69.29;100339.81;6194307;23;20012;-75
2020/12/15 12:44:18;;;;;;;10.00;6.15;;;;;;;11.43;69.44;100350.47;6194119;23;20001;-75